DLH2546 EDDF-EGLL
Flight info
| Callsign | DLH2546 |
|---|---|
| Flight time | 1h 9m |
| Altitude | 40000 |
| Route | OBOKA3W/25C OBOKA Z29 TORNU DCT ABNED L980 LOGAN |
| Aircraft | B744/H-SDE3FGHIM1M2RWXY/LB1 |
Departure
| Time | 2026-05-06 17:09 |
|---|---|
| Airport | Frankfurt Main Airport (EDDF) |
Arrival
| Time | 2026-05-06 18:19 |
|---|---|
| Airport | London Heathrow Airport (EGLL) |
| Time | Latitude | Longitude | Altitude | Speed | Heading |
|---|---|---|---|---|---|
| 2026-05-06 16:17 | 50.04730 | 8.56277 | 366 ft | 0 kts | 340° |
| 2026-05-06 16:52 | 50.04729 | 8.56278 | 367 ft | 1 kts | 340° |
| 2026-05-06 16:52 | 50.04716 | 8.56285 | 367 ft | 2 kts | 340° |
| 2026-05-06 16:52 | 50.04702 | 8.56293 | 367 ft | 2 kts | 340° |
| 2026-05-06 16:52 | 50.04688 | 8.56301 | 367 ft | 2 kts | 343° |
| 2026-05-06 16:53 | 50.04674 | 8.56307 | 367 ft | 2 kts | 348° |
| 2026-05-06 16:53 | 50.04659 | 8.56311 | 367 ft | 2 kts | 345° |
| 2026-05-06 16:53 | 50.04648 | 8.56324 | 367 ft | 2 kts | 299° |
| 2026-05-06 16:53 | 50.04644 | 8.56345 | 367 ft | 2 kts | 264° |
| 2026-05-06 16:54 | 50.04647 | 8.56361 | 367 ft | 0 kts | 245° |
| 2026-05-06 16:54 | 50.04647 | 8.56363 | 367 ft | 0 kts | 245° |
| 2026-05-06 16:56 | 50.04647 | 8.56362 | 367 ft | 0 kts | 245° |
| 2026-05-06 16:58 | 50.04644 | 8.56349 | 367 ft | 4 kts | 252° |
| 2026-05-06 16:58 | 50.04626 | 8.56264 | 367 ft | 12 kts | 251° |
| 2026-05-06 16:59 | 50.04590 | 8.56111 | 367 ft | 17 kts | 250° |
| 2026-05-06 16:59 | 50.04522 | 8.55950 | 367 ft | 18 kts | 205° |
| 2026-05-06 16:59 | 50.04396 | 8.55913 | 367 ft | 16 kts | 177° |
| 2026-05-06 16:59 | 50.04335 | 8.55935 | 367 ft | 0 kts | 160° |
| 2026-05-06 17:00 | 50.04333 | 8.55936 | 367 ft | 1 kts | 161° |
| 2026-05-06 17:00 | 50.04304 | 8.55951 | 367 ft | 7 kts | 162° |
| 2026-05-06 17:00 | 50.04238 | 8.55938 | 367 ft | 12 kts | 206° |
| 2026-05-06 17:01 | 50.04134 | 8.55946 | 367 ft | 18 kts | 160° |
| 2026-05-06 17:01 | 50.04079 | 8.56077 | 367 ft | 17 kts | 70° |
| 2026-05-06 17:01 | 50.04129 | 8.56274 | 367 ft | 22 kts | 70° |
| 2026-05-06 17:01 | 50.04189 | 8.56526 | 367 ft | 28 kts | 70° |
| 2026-05-06 17:02 | 50.04261 | 8.56840 | 367 ft | 33 kts | 70° |
| 2026-05-06 17:02 | 50.04345 | 8.57186 | 367 ft | 35 kts | 69° |
| 2026-05-06 17:02 | 50.04433 | 8.57558 | 367 ft | 40 kts | 71° |
| 2026-05-06 17:02 | 50.04525 | 8.57946 | 367 ft | 36 kts | 71° |
| 2026-05-06 17:03 | 50.04615 | 8.58323 | 367 ft | 32 kts | 68° |
| 2026-05-06 17:03 | 50.04653 | 8.58504 | 367 ft | 0 kts | 88° |
| 2026-05-06 17:03 | 50.04653 | 8.58505 | 367 ft | 0 kts | 88° |
| 2026-05-06 17:03 | 50.04652 | 8.58520 | 367 ft | 3 kts | 100° |
| 2026-05-06 17:04 | 50.04625 | 8.58570 | 367 ft | 6 kts | 155° |
| 2026-05-06 17:04 | 50.04620 | 8.58573 | 367 ft | 0 kts | 155° |
| 2026-05-06 17:05 | 50.04617 | 8.58576 | 367 ft | 4 kts | 155° |
| 2026-05-06 17:05 | 50.04571 | 8.58606 | 367 ft | 0 kts | 160° |
| 2026-05-06 17:06 | 50.04608 | 8.58583 | 367 ft | 0 kts | 158° |
| 2026-05-06 17:07 | 50.04602 | 8.58587 | 367 ft | 3 kts | 159° |
| 2026-05-06 17:07 | 50.04561 | 8.58610 | 367 ft | 9 kts | 164° |
| 2026-05-06 17:07 | 50.04491 | 8.58575 | 367 ft | 14 kts | 234° |
| 2026-05-06 17:07 | 50.04476 | 8.58529 | 367 ft | 0 kts | 250° |
| 2026-05-06 17:08 | 50.04464 | 8.58479 | 367 ft | 27 kts | 251° |
| 2026-05-06 17:08 | 50.04289 | 8.57735 | 367 ft | 115 kts | 251° |
| 2026-05-06 17:09 | 50.03924 | 8.56191 | 392 ft | 182 kts | 252° |
| 2026-05-06 17:09 | 50.03460 | 8.54273 | 929 ft | 197 kts | 252° |
| 2026-05-06 17:09 | 50.02913 | 8.52066 | 1057 ft | 242 kts | 251° |
| 2026-05-06 17:09 | 50.02245 | 8.49339 | 1001 ft | 297 kts | 252° |
| 2026-05-06 17:10 | 50.01523 | 8.46127 | 1567 ft | 327 kts | 253° |
| 2026-05-06 17:10 | 50.00647 | 8.42875 | 2720 ft | 332 kts | 242° |
| 2026-05-06 17:10 | 49.99198 | 8.40082 | 3870 ft | 338 kts | 225° |
| 2026-05-06 17:10 | 49.97252 | 8.38070 | 5019 ft | 342 kts | 207° |
| 2026-05-06 17:11 | 49.94956 | 8.37024 | 6171 ft | 345 kts | 190° |
| 2026-05-06 17:11 | 49.92567 | 8.36937 | 6751 ft | 344 kts | 179° |
| 2026-05-06 17:11 | 49.90169 | 8.37016 | 6848 ft | 337 kts | 187° |
| 2026-05-06 17:11 | 49.87924 | 8.36162 | 6900 ft | 327 kts | 205° |
| 2026-05-06 17:12 | 49.85972 | 8.34299 | 7040 ft | 338 kts | 223° |
| 2026-05-06 17:12 | 49.84495 | 8.31537 | 7892 ft | 342 kts | 239° |
| 2026-05-06 17:12 | 49.83582 | 8.28133 | 8839 ft | 344 kts | 256° |
| 2026-05-06 17:12 | 49.83347 | 8.24464 | 9773 ft | 346 kts | 272° |
| 2026-05-06 17:13 | 49.83800 | 8.20824 | 10645 ft | 351 kts | 288° |
| 2026-05-06 17:13 | 49.84940 | 8.17408 | 11444 ft | 357 kts | 304° |
| 2026-05-06 17:13 | 49.86657 | 8.14635 | 12276 ft | 360 kts | 320° |
| 2026-05-06 17:13 | 49.88797 | 8.12669 | 12849 ft | 360 kts | 335° |
| 2026-05-06 17:14 | 49.91047 | 8.11045 | 13114 ft | 354 kts | 327° |
| 2026-05-06 17:14 | 49.93108 | 8.08980 | 13170 ft | 350 kts | 330° |
| 2026-05-06 17:14 | 49.95370 | 8.07626 | 13110 ft | 344 kts | 343° |
| 2026-05-06 17:14 | 49.97715 | 8.06507 | 13163 ft | 355 kts | 336° |
| 2026-05-06 17:15 | 49.99945 | 8.04799 | 13880 ft | 358 kts | 330° |
| 2026-05-06 17:15 | 50.02097 | 8.02869 | 14641 ft | 362 kts | 327° |
| 2026-05-06 17:15 | 50.04236 | 8.00721 | 15384 ft | 365 kts | 325° |
| 2026-05-06 17:15 | 50.06313 | 7.98447 | 16122 ft | 367 kts | 323° |
| 2026-05-06 17:16 | 50.08364 | 7.96056 | 16817 ft | 370 kts | 321° |
| 2026-05-06 17:16 | 50.10405 | 7.93578 | 17551 ft | 372 kts | 320° |
| 2026-05-06 17:16 | 50.12423 | 7.91057 | 18222 ft | 374 kts | 319° |
| 2026-05-06 17:16 | 50.14447 | 7.88445 | 18893 ft | 376 kts | 318° |
| 2026-05-06 17:17 | 50.16449 | 7.85794 | 19507 ft | 379 kts | 318° |
| 2026-05-06 17:17 | 50.18498 | 7.83099 | 20178 ft | 384 kts | 318° |
| 2026-05-06 17:17 | 50.20543 | 7.80383 | 21171 ft | 391 kts | 318° |
| 2026-05-06 17:17 | 50.22622 | 7.77632 | 22272 ft | 395 kts | 318° |
| 2026-05-06 17:18 | 50.24730 | 7.74848 | 23311 ft | 399 kts | 320° |
| 2026-05-06 17:18 | 50.27102 | 7.72543 | 24260 ft | 406 kts | 333° |
| 2026-05-06 17:18 | 50.29727 | 7.70832 | 25168 ft | 411 kts | 336° |
| 2026-05-06 17:18 | 50.32404 | 7.69033 | 26062 ft | 415 kts | 334° |
| 2026-05-06 17:19 | 50.35101 | 7.67206 | 26915 ft | 420 kts | 335° |
| 2026-05-06 17:19 | 50.37769 | 7.65402 | 27649 ft | 425 kts | 334° |
| 2026-05-06 17:19 | 50.40471 | 7.63526 | 28414 ft | 429 kts | 334° |
| 2026-05-06 17:19 | 50.43223 | 7.61634 | 29142 ft | 433 kts | 335° |
| 2026-05-06 17:20 | 50.45972 | 7.59741 | 29828 ft | 437 kts | 335° |
| 2026-05-06 17:20 | 50.48740 | 7.57831 | 30495 ft | 441 kts | 335° |
| 2026-05-06 17:20 | 50.51575 | 7.55878 | 31129 ft | 445 kts | 335° |
| 2026-05-06 17:20 | 50.54402 | 7.53922 | 31659 ft | 448 kts | 335° |
| 2026-05-06 17:21 | 50.57218 | 7.51675 | 32163 ft | 449 kts | 326° |
| 2026-05-06 17:21 | 50.59773 | 7.48965 | 32642 ft | 451 kts | 324° |
| 2026-05-06 17:21 | 50.62440 | 7.46227 | 33062 ft | 454 kts | 326° |
| 2026-05-06 17:21 | 50.65077 | 7.43530 | 33454 ft | 456 kts | 325° |
| 2026-05-06 17:22 | 50.67772 | 7.40750 | 33859 ft | 458 kts | 325° |
| 2026-05-06 17:22 | 50.70415 | 7.38031 | 34244 ft | 459 kts | 325° |
| 2026-05-06 17:22 | 50.73052 | 7.35074 | 34603 ft | 458 kts | 317° |
| 2026-05-06 17:22 | 50.75194 | 7.31489 | 34936 ft | 455 kts | 304° |
| 2026-05-06 17:23 | 50.76810 | 7.27199 | 35228 ft | 454 kts | 293° |
| 2026-05-06 17:23 | 50.78179 | 7.22680 | 35521 ft | 457 kts | 294° |
| 2026-05-06 17:23 | 50.79625 | 7.18224 | 35760 ft | 461 kts | 295° |
| 2026-05-06 17:23 | 50.81098 | 7.13664 | 35986 ft | 465 kts | 295° |
| 2026-05-06 17:24 | 50.82585 | 7.09061 | 36213 ft | 468 kts | 295° |
| 2026-05-06 17:24 | 50.84055 | 7.04490 | 36463 ft | 471 kts | 295° |
| 2026-05-06 17:24 | 50.85543 | 6.99834 | 36713 ft | 472 kts | 295° |
| 2026-05-06 17:24 | 50.87022 | 6.95209 | 36960 ft | 473 kts | 295° |
| 2026-05-06 17:25 | 50.88526 | 6.90548 | 37205 ft | 474 kts | 295° |
| 2026-05-06 17:25 | 50.90025 | 6.85889 | 37438 ft | 475 kts | 295° |
| 2026-05-06 17:25 | 50.91525 | 6.81218 | 37665 ft | 476 kts | 295° |
| 2026-05-06 17:25 | 50.93034 | 6.76510 | 37887 ft | 477 kts | 295° |
| 2026-05-06 17:26 | 50.94550 | 6.71773 | 38096 ft | 477 kts | 295° |
| 2026-05-06 17:26 | 50.96053 | 6.67072 | 38296 ft | 477 kts | 295° |
| 2026-05-06 17:26 | 50.97540 | 6.62392 | 38473 ft | 477 kts | 295° |
| 2026-05-06 17:26 | 50.99044 | 6.57669 | 38652 ft | 477 kts | 295° |
| 2026-05-06 17:27 | 51.00530 | 6.52980 | 38780 ft | 474 kts | 295° |
| 2026-05-06 17:27 | 51.03481 | 6.43651 | 38842 ft | 466 kts | 295° |
| 2026-05-06 17:28 | 51.06373 | 6.34468 | 38849 ft | 462 kts | 294° |
| 2026-05-06 17:28 | 51.09249 | 6.25309 | 38866 ft | 461 kts | 294° |
| 2026-05-06 17:29 | 51.12123 | 6.16108 | 38907 ft | 475 kts | 294° |
| 2026-05-06 17:29 | 51.14699 | 6.06333 | 38877 ft | 470 kts | 282° |
| 2026-05-06 17:30 | 51.16256 | 5.96379 | 38861 ft | 460 kts | 283° |
| 2026-05-06 17:30 | 51.17823 | 5.86558 | 38874 ft | 457 kts | 283° |
| 2026-05-06 17:30 | 51.18700 | 5.81674 | 38822 ft | 446 kts | 289° |
| 2026-05-06 17:31 | 51.19899 | 5.77282 | 38791 ft | 424 kts | 292° |
| 2026-05-06 17:31 | 51.21066 | 5.73004 | 39053 ft | 420 kts | 291° |
| 2026-05-06 17:31 | 51.22203 | 5.68683 | 39520 ft | 418 kts | 291° |
| 2026-05-06 17:31 | 51.23342 | 5.64398 | 39795 ft | 422 kts | 291° |
| 2026-05-06 17:32 | 51.24482 | 5.60072 | 39943 ft | 429 kts | 291° |
| 2026-05-06 17:32 | 51.26843 | 5.51063 | 40035 ft | 448 kts | 291° |
| 2026-05-06 17:33 | 51.29293 | 5.41683 | 40026 ft | 469 kts | 291° |
| 2026-05-06 17:33 | 51.31850 | 5.31841 | 39994 ft | 487 kts | 290° |
| 2026-05-06 17:34 | 51.34472 | 5.21707 | 39962 ft | 498 kts | 291° |
| 2026-05-06 17:34 | 51.37127 | 5.11410 | 39934 ft | 503 kts | 291° |
| 2026-05-06 17:35 | 51.39780 | 5.01070 | 39906 ft | 499 kts | 290° |
| 2026-05-06 17:35 | 51.42406 | 4.90782 | 39903 ft | 497 kts | 290° |
| 2026-05-06 17:36 | 51.46316 | 4.75373 | 39909 ft | 498 kts | 291° |
| 2026-05-06 17:36 | 51.48918 | 4.65064 | 39915 ft | 498 kts | 291° |
| 2026-05-06 17:37 | 51.51521 | 4.54691 | 39913 ft | 498 kts | 291° |
| 2026-05-06 17:37 | 51.54099 | 4.44378 | 39911 ft | 498 kts | 291° |
| 2026-05-06 17:38 | 51.56679 | 4.34007 | 39916 ft | 498 kts | 290° |
| 2026-05-06 17:38 | 51.59249 | 4.23636 | 39919 ft | 498 kts | 290° |
| 2026-05-06 17:39 | 51.61821 | 4.13220 | 39920 ft | 498 kts | 290° |
| 2026-05-06 17:39 | 51.64365 | 4.02859 | 39917 ft | 498 kts | 290° |
| 2026-05-06 17:40 | 51.66901 | 3.92464 | 39914 ft | 498 kts | 290° |
| 2026-05-06 17:40 | 51.69441 | 3.82004 | 39914 ft | 498 kts | 290° |
| 2026-05-06 17:41 | 51.71961 | 3.71582 | 39922 ft | 498 kts | 290° |
| 2026-05-06 17:41 | 51.74463 | 3.61180 | 39922 ft | 497 kts | 290° |
| 2026-05-06 17:42 | 51.76966 | 3.50747 | 39933 ft | 497 kts | 290° |
| 2026-05-06 17:42 | 51.79448 | 3.40339 | 39937 ft | 496 kts | 290° |
| 2026-05-06 17:43 | 51.81939 | 3.29861 | 39942 ft | 496 kts | 289° |
| 2026-05-06 17:43 | 51.84242 | 3.19390 | 39908 ft | 494 kts | 281° |
| 2026-05-06 17:44 | 51.84663 | 3.13900 | 39922 ft | 491 kts | 269° |
| 2026-05-06 17:44 | 51.84410 | 3.08402 | 39942 ft | 490 kts | 262° |
| 2026-05-06 17:44 | 51.83644 | 2.97377 | 39965 ft | 493 kts | 263° |
| 2026-05-06 17:45 | 51.82908 | 2.86353 | 39951 ft | 494 kts | 263° |
| 2026-05-06 17:45 | 51.82165 | 2.75288 | 39949 ft | 495 kts | 263° |
| 2026-05-06 17:46 | 51.81413 | 2.64230 | 39942 ft | 493 kts | 263° |
| 2026-05-06 17:46 | 51.80650 | 2.53235 | 39947 ft | 492 kts | 264° |
| 2026-05-06 17:47 | 51.79882 | 2.42254 | 39947 ft | 492 kts | 263° |
| 2026-05-06 17:47 | 51.79105 | 2.31264 | 39953 ft | 491 kts | 263° |
| 2026-05-06 17:48 | 51.78326 | 2.20341 | 39939 ft | 492 kts | 264° |
| 2026-05-06 17:48 | 51.78021 | 2.14784 | 39587 ft | 498 kts | 264° |
| 2026-05-06 17:48 | 51.77690 | 2.09234 | 39079 ft | 497 kts | 264° |
| 2026-05-06 17:49 | 51.77358 | 2.03680 | 38546 ft | 491 kts | 264° |
| 2026-05-06 17:49 | 51.77034 | 1.98232 | 38051 ft | 486 kts | 264° |
| 2026-05-06 17:49 | 51.76707 | 1.92835 | 37592 ft | 484 kts | 264° |
| 2026-05-06 17:49 | 51.76380 | 1.87424 | 37116 ft | 485 kts | 264° |
| 2026-05-06 17:50 | 51.76053 | 1.82097 | 36655 ft | 483 kts | 264° |
| 2026-05-06 17:50 | 51.75715 | 1.76659 | 36172 ft | 482 kts | 264° |
| 2026-05-06 17:50 | 51.75380 | 1.71290 | 35700 ft | 481 kts | 265° |
| 2026-05-06 17:50 | 51.75048 | 1.65926 | 35228 ft | 483 kts | 265° |
| 2026-05-06 17:51 | 51.74715 | 1.60544 | 34712 ft | 483 kts | 265° |
| 2026-05-06 17:51 | 51.74374 | 1.55174 | 34138 ft | 483 kts | 265° |
| 2026-05-06 17:51 | 51.74031 | 1.49793 | 33584 ft | 484 kts | 265° |
| 2026-05-06 17:51 | 51.73689 | 1.44412 | 33036 ft | 485 kts | 264° |
| 2026-05-06 17:52 | 51.73334 | 1.38970 | 32497 ft | 486 kts | 264° |
| 2026-05-06 17:52 | 51.72982 | 1.33563 | 31969 ft | 489 kts | 264° |
| 2026-05-06 17:52 | 51.72619 | 1.28088 | 31445 ft | 491 kts | 264° |
| 2026-05-06 17:52 | 51.72263 | 1.22703 | 30923 ft | 492 kts | 264° |
| 2026-05-06 17:53 | 51.71893 | 1.17196 | 30382 ft | 493 kts | 264° |
| 2026-05-06 17:53 | 51.71523 | 1.11725 | 29857 ft | 494 kts | 264° |
| 2026-05-06 17:53 | 51.71151 | 1.06240 | 29325 ft | 496 kts | 264° |
| 2026-05-06 17:53 | 51.70773 | 1.00677 | 28802 ft | 498 kts | 264° |
| 2026-05-06 17:54 | 51.70392 | 0.95114 | 28288 ft | 499 kts | 264° |
| 2026-05-06 17:54 | 51.70010 | 0.89621 | 27784 ft | 499 kts | 264° |
| 2026-05-06 17:54 | 51.69623 | 0.84096 | 27242 ft | 495 kts | 264° |
| 2026-05-06 17:54 | 51.69235 | 0.78556 | 26677 ft | 492 kts | 264° |
| 2026-05-06 17:55 | 51.69064 | 0.76136 | 26429 ft | 491 kts | 264° |
| 2026-05-06 17:55 | 51.68680 | 0.70698 | 25861 ft | 483 kts | 264° |
| 2026-05-06 17:55 | 51.68310 | 0.65437 | 25303 ft | 472 kts | 264° |
| 2026-05-06 17:55 | 51.67934 | 0.60242 | 24745 ft | 465 kts | 264° |
| 2026-05-06 17:56 | 51.67565 | 0.55097 | 24195 ft | 460 kts | 264° |
| 2026-05-06 17:56 | 51.67194 | 0.50023 | 23625 ft | 448 kts | 264° |
| 2026-05-06 17:56 | 51.66839 | 0.45191 | 23012 ft | 425 kts | 264° |
| 2026-05-06 17:56 | 51.66499 | 0.40602 | 22353 ft | 405 kts | 264° |
| 2026-05-06 17:57 | 51.66170 | 0.36190 | 21634 ft | 389 kts | 264° |
| 2026-05-06 17:57 | 51.65853 | 0.31962 | 20853 ft | 376 kts | 263° |
| 2026-05-06 17:57 | 51.65542 | 0.27839 | 20089 ft | 367 kts | 264° |
| 2026-05-06 17:57 | 51.65245 | 0.23869 | 19284 ft | 358 kts | 264° |
| 2026-05-06 17:58 | 51.64951 | 0.19952 | 18563 ft | 351 kts | 264° |
| 2026-05-06 17:58 | 51.64663 | 0.16084 | 17738 ft | 344 kts | 264° |
| 2026-05-06 17:58 | 51.64437 | 0.12309 | 16992 ft | 337 kts | 269° |
| 2026-05-06 17:58 | 51.64364 | 0.08588 | 16292 ft | 330 kts | 264° |
| 2026-05-06 17:59 | 51.63738 | 0.05134 | 15636 ft | 324 kts | 246° |
| 2026-05-06 17:59 | 51.62455 | 0.02134 | 14992 ft | 328 kts | 228° |
| 2026-05-06 17:59 | 51.60650 | -0.00097 | 14408 ft | 331 kts | 210° |
| 2026-05-06 17:59 | 51.58483 | -0.01359 | 13845 ft | 333 kts | 192° |
| 2026-05-06 18:00 | 51.56181 | -0.01515 | 13308 ft | 339 kts | 174° |
| 2026-05-06 18:00 | 51.53910 | -0.00545 | 12782 ft | 333 kts | 156° |
| 2026-05-06 18:00 | 51.51986 | 0.01420 | 12253 ft | 322 kts | 137° |
| 2026-05-06 18:00 | 51.50606 | 0.04114 | 11760 ft | 318 kts | 118° |
| 2026-05-06 18:01 | 51.49821 | 0.07425 | 11343 ft | 311 kts | 99° |
| 2026-05-06 18:01 | 51.49734 | 0.10786 | 10957 ft | 295 kts | 81° |
| 2026-05-06 18:01 | 51.50277 | 0.13806 | 10640 ft | 277 kts | 60° |
| 2026-05-06 18:01 | 51.51399 | 0.16178 | 10417 ft | 255 kts | 38° |
| 2026-05-06 18:02 | 51.52850 | 0.17526 | 10251 ft | 235 kts | 15° |
| 2026-05-06 18:02 | 51.54450 | 0.17766 | 10138 ft | 234 kts | 350° |
| 2026-05-06 18:02 | 51.56010 | 0.16880 | 10043 ft | 243 kts | 327° |
| 2026-05-06 18:02 | 51.57242 | 0.15011 | 9933 ft | 246 kts | 304° |
| 2026-05-06 18:03 | 51.57909 | 0.12494 | 9823 ft | 249 kts | 281° |
| 2026-05-06 18:03 | 51.58087 | 0.09719 | 9722 ft | 251 kts | 275° |
| 2026-05-06 18:03 | 51.58226 | 0.06917 | 9602 ft | 250 kts | 276° |
| 2026-05-06 18:03 | 51.58372 | 0.04125 | 9485 ft | 249 kts | 276° |
| 2026-05-06 18:04 | 51.58515 | 0.01388 | 9349 ft | 249 kts | 276° |
| 2026-05-06 18:04 | 51.58663 | -0.01414 | 9234 ft | 248 kts | 276° |
| 2026-05-06 18:04 | 51.58734 | -0.04179 | 9123 ft | 248 kts | 271° |
| 2026-05-06 18:04 | 51.58715 | -0.06959 | 9015 ft | 248 kts | 271° |
| 2026-05-06 18:05 | 51.58711 | -0.09735 | 8900 ft | 248 kts | 271° |
| 2026-05-06 18:05 | 51.58703 | -0.12523 | 8782 ft | 248 kts | 270° |
| 2026-05-06 18:05 | 51.58698 | -0.15263 | 8665 ft | 248 kts | 271° |
| 2026-05-06 18:05 | 51.58690 | -0.18015 | 8559 ft | 248 kts | 271° |
| 2026-05-06 18:06 | 51.58682 | -0.20799 | 8448 ft | 248 kts | 271° |
| 2026-05-06 18:06 | 51.58673 | -0.23556 | 8343 ft | 247 kts | 271° |
| 2026-05-06 18:06 | 51.58665 | -0.26336 | 8226 ft | 247 kts | 271° |
| 2026-05-06 18:06 | 51.58657 | -0.29106 | 8113 ft | 246 kts | 271° |
| 2026-05-06 18:07 | 51.58646 | -0.31842 | 8001 ft | 246 kts | 271° |
| 2026-05-06 18:07 | 51.58633 | -0.34624 | 7711 ft | 251 kts | 271° |
| 2026-05-06 18:07 | 51.58625 | -0.37429 | 7364 ft | 247 kts | 271° |
| 2026-05-06 18:07 | 51.58617 | -0.40154 | 7141 ft | 243 kts | 271° |
| 2026-05-06 18:08 | 51.58607 | -0.42850 | 7045 ft | 242 kts | 271° |
| 2026-05-06 18:08 | 51.58598 | -0.45594 | 7022 ft | 243 kts | 271° |
| 2026-05-06 18:08 | 51.58586 | -0.48295 | 7014 ft | 243 kts | 271° |
| 2026-05-06 18:08 | 51.58576 | -0.51052 | 6885 ft | 246 kts | 271° |
| 2026-05-06 18:09 | 51.58572 | -0.53792 | 6609 ft | 248 kts | 271° |
| 2026-05-06 18:09 | 51.58561 | -0.56548 | 6321 ft | 244 kts | 271° |
| 2026-05-06 18:09 | 51.58551 | -0.59266 | 6045 ft | 242 kts | 271° |
| 2026-05-06 18:09 | 51.58531 | -0.61984 | 5732 ft | 243 kts | 271° |
| 2026-05-06 18:10 | 51.58509 | -0.64698 | 5439 ft | 241 kts | 271° |
| 2026-05-06 18:10 | 51.58481 | -0.67371 | 5187 ft | 239 kts | 270° |
| 2026-05-06 18:10 | 51.58451 | -0.70016 | 5062 ft | 236 kts | 271° |
| 2026-05-06 18:10 | 51.58422 | -0.72660 | 5029 ft | 238 kts | 270° |
| 2026-05-06 18:11 | 51.58266 | -0.75334 | 5000 ft | 240 kts | 255° |
| 2026-05-06 18:11 | 51.57843 | -0.76982 | 4935 ft | 243 kts | 240° |
| 2026-05-06 18:11 | 51.56295 | -0.79590 | 4813 ft | 239 kts | 220° |
| 2026-05-06 18:11 | 51.55005 | -0.81298 | 4587 ft | 240 kts | 221° |
| 2026-05-06 18:12 | 51.53746 | -0.82988 | 4324 ft | 228 kts | 220° |
| 2026-05-06 18:12 | 51.52567 | -0.84547 | 4095 ft | 216 kts | 219° |
| 2026-05-06 18:12 | 51.51272 | -0.85608 | 3907 ft | 206 kts | 191° |
| 2026-05-06 18:12 | 51.49862 | -0.85576 | 3807 ft | 204 kts | 162° |
| 2026-05-06 18:13 | 51.48620 | -0.84512 | 3541 ft | 202 kts | 133° |
| 2026-05-06 18:13 | 51.47729 | -0.82856 | 3269 ft | 195 kts | 124° |
| 2026-05-06 18:13 | 51.46954 | -0.81119 | 3062 ft | 189 kts | 112° |
| 2026-05-06 18:13 | 51.46706 | -0.79183 | 3065 ft | 170 kts | 81° |
| 2026-05-06 18:14 | 51.47068 | -0.77388 | 3366 ft | 174 kts | 62° |
| 2026-05-06 18:14 | 51.47489 | -0.75530 | 3498 ft | 184 kts | 77° |
| 2026-05-06 18:14 | 51.47571 | -0.73425 | 3378 ft | 187 kts | 85° |
| 2026-05-06 18:14 | 51.47612 | -0.71430 | 3150 ft | 174 kts | 84° |
| 2026-05-06 18:15 | 51.47633 | -0.69564 | 2880 ft | 160 kts | 85° |
| 2026-05-06 18:15 | 51.47640 | -0.67843 | 2613 ft | 147 kts | 84° |
| 2026-05-06 18:15 | 51.47652 | -0.66259 | 2391 ft | 141 kts | 84° |
| 2026-05-06 18:15 | 51.47662 | -0.64691 | 2188 ft | 139 kts | 84° |
| 2026-05-06 18:16 | 51.47671 | -0.63143 | 1987 ft | 138 kts | 84° |
| 2026-05-06 18:16 | 51.47682 | -0.61604 | 1794 ft | 140 kts | 84° |
| 2026-05-06 18:16 | 51.47694 | -0.60001 | 1680 ft | 148 kts | 84° |
| 2026-05-06 18:16 | 51.47706 | -0.58326 | 1480 ft | 153 kts | 85° |
| 2026-05-06 18:17 | 51.47714 | -0.56643 | 1133 ft | 147 kts | 85° |
| 2026-05-06 18:17 | 51.47726 | -0.55061 | 883 ft | 142 kts | 85° |
| 2026-05-06 18:17 | 51.47729 | -0.53479 | 674 ft | 137 kts | 86° |
| 2026-05-06 18:17 | 51.47721 | -0.51890 | 562 ft | 146 kts | 85° |
| 2026-05-06 18:18 | 51.47733 | -0.50267 | 357 ft | 144 kts | 85° |
| 2026-05-06 18:18 | 51.47746 | -0.48676 | 154 ft | 142 kts | 86° |
| 2026-05-06 18:18 | 51.47747 | -0.47143 | 96 ft | 132 kts | 86° |
| 2026-05-06 18:18 | 51.47757 | -0.45896 | 95 ft | 79 kts | 88° |
| 2026-05-06 18:19 | 51.47724 | -0.45504 | 95 ft | 19 kts | 141° |
| 2026-05-06 18:19 | 51.47649 | -0.45471 | 95 ft | 0 kts | 171° |
| 2026-05-06 18:19 | 51.47629 | -0.45467 | 95 ft | 9 kts | 173° |
| 2026-05-06 18:20 | 51.47535 | -0.45464 | 95 ft | 13 kts | 163° |
| 2026-05-06 18:20 | 51.47508 | -0.45279 | 95 ft | 25 kts | 87° |
| 2026-05-06 18:20 | 51.47509 | -0.44958 | 95 ft | 26 kts | 88° |
| 2026-05-06 18:20 | 51.47511 | -0.44708 | 95 ft | 18 kts | 91° |
| 2026-05-06 18:21 | 51.47502 | -0.44603 | 95 ft | 13 kts | 115° |
| 2026-05-06 18:21 | 51.47404 | -0.44554 | 95 ft | 18 kts | 181° |
| 2026-05-06 18:21 | 51.47269 | -0.44556 | 95 ft | 20 kts | 179° |
| 2026-05-06 18:21 | 51.47137 | -0.44556 | 95 ft | 15 kts | 179° |
| 2026-05-06 18:22 | 51.47017 | -0.44553 | 95 ft | 16 kts | 179° |
| 2026-05-06 18:22 | 51.46954 | -0.44551 | 95 ft | 3 kts | 180° |
| 2026-05-06 18:22 | 51.46934 | -0.44586 | 95 ft | 2 kts | 277° |
| 2026-05-06 18:22 | 51.46936 | -0.44639 | 95 ft | 6 kts | 270° |
| 2026-05-06 18:23 | 51.46936 | -0.44688 | 95 ft | 0 kts | 269° |
| 2026-05-06 18:23 | 51.46936 | -0.44695 | 95 ft | 0 kts | 270° |
| 2026-05-06 18:27 | 51.46936 | -0.44706 | 95 ft | 0 kts | 270° |